createdAt,value
2018-02-23T00:01:28.105Z,97588.09
2018-02-23T00:03:55.578Z,97583.83
2018-02-23T00:06:23.132Z,97583.02
2018-02-23T00:08:50.628Z,97586.91
2018-02-23T00:11:18.138Z,97590.86
2018-02-23T00:13:45.635Z,97593.45
2018-02-23T00:16:13.148Z,97598.38
2018-02-23T00:18:40.630Z,97594.20
2018-02-23T00:21:08.149Z,97589.93
2018-02-23T00:23:35.699Z,97590.25
2018-02-23T00:26:03.271Z,97592.13
2018-02-23T00:28:30.774Z,97591.73
2018-02-23T00:30:58.242Z,97589.26
2018-02-23T00:33:25.741Z,97587.69
2018-02-23T00:35:53.240Z,97589.42
2018-02-23T00:38:20.725Z,97587.86
2018-02-23T00:40:48.233Z,97580.58
2018-02-23T00:43:16.320Z,97591.75
2018-02-23T00:45:43.829Z,97586.70
2018-02-23T00:48:11.391Z,97589.42
2018-02-23T00:50:38.998Z,97594.63
2018-02-23T00:53:06.585Z,97591.89
2018-02-23T00:55:34.127Z,97588.76
2018-02-23T00:58:01.811Z,97591.44
2018-02-23T01:00:29.313Z,97594.25
2018-02-23T01:02:56.816Z,97586.63
2018-02-23T01:05:24.344Z,97591.19
2018-02-23T01:07:51.880Z,97582.09
2018-02-23T01:10:19.539Z,97588.47
2018-02-23T01:12:47.225Z,97582.53
2018-02-23T01:15:14.703Z,97574.19
2018-02-23T01:17:42.220Z,97577.27
2018-02-23T01:20:09.700Z,97575.91
2018-02-23T01:22:37.182Z,97568.25
2018-02-23T01:25:04.682Z,97562.92
2018-02-23T01:27:32.171Z,97559.05
2018-02-23T01:29:59.678Z,97567.85
2018-02-23T01:32:27.149Z,97560.73
2018-02-23T01:34:54.650Z,97565.49
2018-02-23T01:37:22.127Z,97560.94
2018-02-23T01:39:49.878Z,97563.13
2018-02-23T01:42:17.475Z,97555.41
2018-02-23T01:44:45.016Z,97556.63
2018-02-23T01:47:12.603Z,97556.45
2018-02-23T01:49:40.226Z,97551.44
2018-02-23T01:52:07.809Z,97549.31
2018-02-23T01:54:35.389Z,97539.16
2018-02-23T01:57:02.988Z,97541.94
2018-02-23T01:59:30.516Z,97546.84
2018-02-23T02:01:58.120Z,97546.72
2018-02-23T02:04:25.736Z,97541.21
2018-02-23T02:06:53.211Z,97538.44
2018-02-23T02:09:20.707Z,97541.45
2018-02-23T02:11:48.196Z,97535.45
2018-02-23T02:14:15.729Z,97537.50
2018-02-23T02:16:43.223Z,97538.34
2018-02-23T02:19:10.840Z,97535.81
2018-02-23T02:21:38.317Z,97528.60
2018-02-23T02:24:05.840Z,97532.44
2018-02-23T02:26:33.398Z,97533.08
2018-02-23T02:29:00.908Z,97531.17
2018-02-23T02:31:28.441Z,97534.56
2018-02-23T02:33:55.937Z,97522.77
2018-02-23T02:36:23.453Z,97516.73
2018-02-23T02:38:51.004Z,97519.30
2018-02-23T02:41:18.625Z,97516.30
2018-02-23T02:43:46.163Z,97523.80
2018-02-23T02:46:13.756Z,97524.03
2018-02-23T02:48:41.374Z,97516.32
2018-02-23T02:51:08.986Z,97520.75
2018-02-23T02:53:36.507Z,97520.44
2018-02-23T02:56:04.020Z,97516.59
2018-02-23T02:58:31.537Z,97522.14
2018-02-23T03:00:59.067Z,97517.65
2018-02-23T03:03:26.615Z,97515.97
2018-02-23T03:05:54.116Z,97513.16
2018-02-23T03:08:21.598Z,97506.72
2018-02-23T03:10:49.099Z,97520.14
2018-02-23T03:13:16.586Z,97516.05
2018-02-23T03:15:44.177Z,97508.75
2018-02-23T03:18:11.655Z,97510.18
2018-02-23T03:20:39.194Z,97510.22
2018-02-23T03:23:06.704Z,97511.89
2018-02-23T03:25:34.230Z,97511.66
2018-02-23T03:28:01.707Z,97512.58
2018-02-23T03:30:29.208Z,97513.62
2018-02-23T03:32:56.911Z,97515.46
2018-02-23T03:35:24.466Z,97510.45
2018-02-23T03:37:52.002Z,97506.56
2018-02-23T03:40:19.564Z,97507.66
2018-02-23T03:42:47.038Z,97508.64
2018-02-23T03:45:14.547Z,97510.37
2018-02-23T03:47:42.043Z,97513.02
2018-02-23T03:50:09.526Z,97514.34
2018-02-23T03:52:37.030Z,97513.62
2018-02-23T03:55:04.516Z,97515.80
2018-02-23T03:57:32.021Z,97509.81
2018-02-23T03:59:59.564Z,97512.43
2018-02-23T04:02:27.106Z,97517.42
2018-02-23T04:04:54.623Z,97516.52
2018-02-23T04:07:22.260Z,97513.58
2018-02-23T04:09:49.738Z,97517.09
2018-02-23T04:12:17.222Z,97510.25
2018-02-23T04:14:44.747Z,97510.17
2018-02-23T04:17:12.348Z,97504.33
2018-02-23T04:19:39.848Z,97516.22
2018-02-23T04:22:07.334Z,97516.63
2018-02-23T04:24:34.829Z,97515.59
2018-02-23T04:27:02.340Z,97518.86
2018-02-23T04:29:29.826Z,97515.38
2018-02-23T04:31:57.331Z,97520.29
2018-02-23T04:34:24.812Z,97519.32
2018-02-23T04:36:52.289Z,97524.45
2018-02-23T04:39:19.818Z,97519.27
2018-02-23T04:41:47.305Z,97519.51
2018-02-23T04:44:14.812Z,97523.77
2018-02-23T04:46:42.334Z,97521.27
2018-02-23T04:49:09.863Z,97517.88
2018-02-23T04:51:37.365Z,97517.75
2018-02-23T04:54:04.884Z,97515.22
2018-02-23T04:56:32.506Z,97520.82
2018-02-23T04:59:00.158Z,97526.58
2018-02-23T05:01:27.657Z,97524.55
2018-02-23T05:03:55.153Z,97517.13
2018-02-23T05:06:22.674Z,97528.02
2018-02-23T05:08:50.175Z,97521.97
2018-02-23T05:11:17.676Z,97523.27
2018-02-23T05:13:45.217Z,97522.60
2018-02-23T05:16:12.802Z,97523.61
2018-02-23T05:18:40.398Z,97525.78
2018-02-23T05:21:07.922Z,97524.35
2018-02-23T05:23:35.425Z,97526.33
2018-02-23T05:26:02.906Z,97534.23
2018-02-23T05:28:30.412Z,97531.39
2018-02-23T05:30:57.937Z,97530.22
2018-02-23T05:33:25.448Z,97531.27
2018-02-23T05:35:52.960Z,97532.33
2018-02-23T05:38:20.816Z,97520.00
2018-02-23T05:40:48.338Z,97523.05
2018-02-23T05:43:15.836Z,97524.48
2018-02-23T05:45:44.048Z,97522.41
2018-02-23T05:48:11.577Z,97524.25
2018-02-23T05:50:39.091Z,97531.63
2018-02-23T05:53:06.684Z,97521.91
2018-02-23T05:55:34.185Z,97529.20
2018-02-23T05:58:01.854Z,97534.49
2018-02-23T06:00:29.418Z,97536.91
2018-02-23T06:02:56.943Z,97535.50
2018-02-23T06:05:24.448Z,97538.11
2018-02-23T06:07:51.951Z,97539.77
2018-02-23T06:10:19.550Z,97536.91
2018-02-23T06:12:47.788Z,97534.67
2018-02-23T06:15:15.296Z,97532.88
2018-02-23T06:17:48.191Z,97541.43
2018-02-23T06:20:15.695Z,97544.11
2018-02-23T06:22:43.193Z,97542.35
2018-02-23T06:25:10.713Z,97541.25
2018-02-23T06:27:38.214Z,97538.86
2018-02-23T06:30:05.715Z,97546.53
2018-02-23T06:32:33.245Z,97552.88
2018-02-23T06:35:00.729Z,97546.02
2018-02-23T06:37:28.311Z,97556.84
2018-02-23T06:39:55.992Z,97555.13
2018-02-23T06:42:23.522Z,97553.80
2018-02-23T06:44:51.039Z,97551.70
2018-02-23T06:47:18.608Z,97559.34
2018-02-23T06:49:46.228Z,97552.52
2018-02-23T06:52:13.749Z,97557.80
2018-02-23T06:57:15.356Z,97563.97
2018-02-23T06:59:42.877Z,97560.88
2018-02-23T07:02:10.376Z,97561.65
2018-02-23T07:04:37.859Z,97568.66
2018-02-23T07:07:05.367Z,97575.72
2018-02-23T07:09:32.866Z,97566.61
2018-02-23T07:12:00.382Z,97569.49
2018-02-23T07:14:27.871Z,97567.63
2018-02-23T07:16:55.489Z,97569.77
2018-02-23T07:19:22.991Z,97574.26
2018-02-23T07:21:50.491Z,97578.25
2018-02-23T07:24:18.016Z,97567.42
2018-02-23T07:26:45.494Z,97580.77
2018-02-23T07:29:12.998Z,97582.19
2018-02-23T07:31:40.492Z,97576.19
2018-02-23T07:34:08.052Z,97578.77
2018-02-23T07:36:35.541Z,97573.88
2018-02-23T07:39:03.071Z,97572.01
2018-02-23T07:41:30.580Z,97570.59
2018-02-23T07:43:58.101Z,97572.84
2018-02-23T07:46:25.658Z,97574.68
2018-02-23T07:48:53.231Z,97577.03
2018-02-23T07:51:21.864Z,97583.81
2018-02-23T07:53:49.338Z,97585.55
2018-02-23T07:56:16.850Z,97588.30
2018-02-23T07:58:44.355Z,97595.70
2018-02-23T08:01:11.897Z,97594.02
2018-02-23T08:03:39.393Z,97598.09
2018-02-23T08:06:06.905Z,97599.64
2018-02-23T08:08:34.440Z,97607.37
2018-02-23T08:11:02.552Z,97606.50
2018-02-23T08:13:30.170Z,97604.41
2018-02-23T08:15:57.717Z,97604.55
2018-02-23T08:18:25.232Z,97611.97
2018-02-23T08:20:52.761Z,97604.74
2018-02-23T08:23:20.310Z,97605.95
2018-02-23T08:25:47.787Z,97604.84
2018-02-23T08:28:15.321Z,97603.38
2018-02-23T08:30:42.816Z,97607.23
2018-02-23T08:33:10.283Z,97599.63
2018-02-23T08:35:37.805Z,97600.69
2018-02-23T08:38:05.306Z,97599.87
2018-02-23T08:40:32.802Z,97602.52
2018-02-23T08:43:00.296Z,97605.84
2018-02-23T08:45:27.824Z,97606.09
2018-02-23T08:47:55.317Z,97604.82
2018-02-23T08:50:22.949Z,97607.13
2018-02-23T08:52:50.592Z,97612.50
2018-02-23T08:55:18.689Z,97613.84
2018-02-23T08:57:46.191Z,97615.50
2018-02-23T09:00:20.222Z,97602.42
2018-02-23T09:02:47.716Z,97595.17
2018-02-23T09:05:15.250Z,97603.91
2018-02-23T09:07:42.869Z,97607.09
2018-02-23T09:10:10.379Z,97606.67
2018-02-23T09:12:37.879Z,97608.30
2018-02-23T09:15:05.372Z,97608.80
2018-02-23T09:17:32.913Z,97606.45
2018-02-23T09:20:00.399Z,97607.11
2018-02-23T09:22:27.920Z,97616.02
2018-02-23T09:24:55.414Z,97614.17
2018-02-23T09:27:22.960Z,97615.48
2018-02-23T09:29:50.463Z,97616.18
2018-02-23T09:32:29.860Z,97618.80
2018-02-23T09:34:57.405Z,97618.30
2018-02-23T09:37:24.967Z,97621.96
2018-02-23T09:39:52.500Z,97616.37
2018-02-23T09:42:20.079Z,97620.37
2018-02-23T09:44:47.626Z,97620.41
2018-02-23T09:47:15.108Z,97628.75
2018-02-23T09:49:42.636Z,97630.61
2018-02-23T09:52:10.252Z,97634.45
2018-02-23T09:54:37.810Z,97628.80
2018-02-23T09:57:05.411Z,97629.77
2018-02-23T09:59:32.931Z,97632.73
2018-02-23T10:02:00.537Z,97632.67
2018-02-23T10:04:28.210Z,97633.98
2018-02-23T10:06:55.827Z,97643.12
2018-02-23T10:09:23.331Z,97639.20
2018-02-23T10:11:50.915Z,97633.55
2018-02-23T10:14:18.422Z,97635.31
2018-02-23T10:16:45.955Z,97638.55
2018-02-23T10:19:13.529Z,97637.56
2018-02-23T10:21:41.025Z,97644.24
2018-02-23T10:24:08.536Z,97637.17
2018-02-23T10:26:36.028Z,97635.41
2018-02-23T10:29:03.546Z,97631.48
2018-02-23T10:31:31.043Z,97636.19
2018-02-23T10:33:58.623Z,97632.39
2018-02-23T10:36:27.381Z,97632.56
2018-02-23T10:38:54.903Z,97634.34
2018-02-23T10:41:22.385Z,97632.04
2018-02-23T10:43:49.892Z,97628.91
2018-02-23T10:46:17.397Z,97631.69
2018-02-23T10:48:44.910Z,97632.15
2018-02-23T10:51:12.435Z,97622.91
2018-02-23T10:53:39.953Z,97620.78
2018-02-23T10:56:07.478Z,97627.32
2018-02-23T10:58:34.959Z,97620.55
2018-02-23T11:01:02.559Z,97631.06
2018-02-23T11:03:30.056Z,97634.83
2018-02-23T11:05:57.582Z,97625.64
2018-02-23T11:08:25.079Z,97619.62
2018-02-23T11:10:52.643Z,97618.59
2018-02-23T11:13:20.130Z,97610.06
2018-02-23T11:15:47.626Z,97608.14
2018-02-23T11:18:15.163Z,97611.42
2018-02-23T11:20:43.428Z,97613.78
2018-02-23T11:23:11.081Z,97627.03
2018-02-23T11:25:38.583Z,97618.47
2018-02-23T11:28:06.063Z,97619.27
2018-02-23T11:30:33.646Z,97621.06
2018-02-23T11:33:01.128Z,97617.33
2018-02-23T11:35:28.666Z,97607.77
2018-02-23T11:37:56.160Z,97587.61
2018-02-23T11:40:23.689Z,97594.45
2018-02-23T11:42:51.211Z,97596.88
2018-02-23T11:45:18.763Z,97588.92
2018-02-23T11:47:46.292Z,97581.60
2018-02-23T11:50:13.806Z,97581.94
2018-02-23T11:52:41.497Z,97576.59
2018-02-23T11:55:09.012Z,97578.38
2018-02-23T11:57:42.168Z,97569.44
2018-02-23T12:00:09.706Z,97584.84
2018-02-23T12:02:37.207Z,97580.64
2018-02-23T12:05:04.738Z,97568.81
2018-02-23T12:07:32.212Z,97571.52
2018-02-23T12:09:59.738Z,97571.50
2018-02-23T12:12:27.714Z,97570.52
2018-02-23T12:14:55.276Z,97574.57
2018-02-23T12:17:22.865Z,97573.12
2018-02-23T12:19:50.470Z,97580.31
2018-02-23T12:22:17.989Z,97580.78
2018-02-23T12:24:45.568Z,97576.86
2018-02-23T12:27:13.065Z,97581.09
2018-02-23T12:29:40.617Z,97568.45
2018-02-23T12:32:08.192Z,97576.30
2018-02-23T12:34:35.741Z,97583.20
2018-02-23T12:37:03.239Z,97573.88
2018-02-23T12:39:30.738Z,97572.73
2018-02-23T12:41:58.243Z,97567.27
2018-02-23T12:44:25.798Z,97560.31
2018-02-23T12:46:53.318Z,97561.51
2018-02-23T12:49:20.846Z,97560.21
2018-02-23T12:51:48.377Z,97563.77
2018-02-23T12:54:15.873Z,97564.00
2018-02-23T12:56:43.406Z,97563.97
2018-02-23T12:59:10.911Z,97567.52
2018-02-23T13:01:38.428Z,97568.27
2018-02-23T13:04:05.945Z,97565.56
2018-02-23T13:06:33.490Z,97578.88
2018-02-23T13:09:00.988Z,97579.90
2018-02-23T13:11:29.216Z,97572.77
2018-02-23T13:13:56.729Z,97564.91
2018-02-23T13:16:29.235Z,97564.85
2018-02-23T13:18:56.779Z,97576.34
2018-02-23T13:21:24.356Z,97583.91
2018-02-23T13:23:52.070Z,97577.00
2018-02-23T13:26:19.564Z,97570.40
2018-02-23T13:28:47.122Z,97579.30
2018-02-23T13:31:14.669Z,97557.68
2018-02-23T13:33:42.194Z,97557.11
2018-02-23T13:36:09.817Z,97554.74
2018-02-23T13:38:37.448Z,97557.77
2018-02-23T13:41:10.752Z,97557.68
2018-02-23T13:43:38.299Z,97549.42
2018-02-23T13:46:06.090Z,97538.78
2018-02-23T13:48:33.612Z,97540.63
2018-02-23T13:51:01.137Z,97539.42
2018-02-23T13:53:34.227Z,97531.27
2018-02-23T13:56:01.774Z,97539.23
2018-02-23T13:58:29.272Z,97544.47
2018-02-23T14:00:56.776Z,97547.48
2018-02-23T14:03:24.315Z,97565.80
2018-02-23T14:05:51.838Z,97556.12
2018-02-23T14:08:19.362Z,97555.96
2018-02-23T14:10:46.871Z,97551.50
2018-02-23T14:13:14.467Z,97556.95
2018-02-23T14:15:42.020Z,97566.61
2018-02-23T14:18:09.593Z,97561.87
2018-02-23T14:20:37.127Z,97554.80
2018-02-23T14:23:04.631Z,97555.30
2018-02-23T14:25:32.165Z,97558.66
2018-02-23T14:27:59.665Z,97547.95
2018-02-23T14:30:27.195Z,97545.34
2018-02-23T14:32:54.702Z,97543.81
2018-02-23T14:35:22.257Z,97553.02
2018-02-23T14:37:49.767Z,97547.27
2018-02-23T14:40:17.891Z,97536.69
2018-02-23T14:42:45.418Z,97543.86
2018-02-23T14:45:12.989Z,97544.81
2018-02-23T14:47:40.594Z,97543.38
2018-02-23T14:50:19.992Z,97540.61
2018-02-23T14:52:47.551Z,97529.91
2018-02-23T14:55:15.066Z,97523.31
2018-02-23T14:57:42.655Z,97524.97
2018-02-23T15:00:10.168Z,97528.08
2018-02-23T15:02:37.677Z,97531.72
2018-02-23T15:05:05.196Z,97529.42
2018-02-23T15:07:32.747Z,97533.98
2018-02-23T15:10:00.320Z,97528.81
2018-02-23T15:12:27.859Z,97537.19
2018-02-23T15:14:55.351Z,97529.70
2018-02-23T15:17:22.890Z,97528.66
2018-02-23T15:19:50.387Z,97530.60
2018-02-23T15:22:17.897Z,97527.84
2018-02-23T15:24:45.457Z,97535.77
2018-02-23T15:27:12.964Z,97532.67
2018-02-23T15:29:40.520Z,97540.18
2018-02-23T15:32:20.015Z,97526.38
2018-02-23T15:34:47.648Z,97531.07
2018-02-23T15:37:15.212Z,97534.38
2018-02-23T15:39:42.742Z,97535.86
2018-02-23T15:42:10.288Z,97548.20
2018-02-23T15:44:37.832Z,97546.37
2018-02-23T15:47:05.348Z,97541.75
2018-02-23T15:49:38.573Z,97529.89
2018-02-23T15:52:20.972Z,97534.58
2018-02-23T15:54:48.511Z,97530.67
2018-02-23T15:57:18.547Z,97527.13
2018-02-23T15:59:46.061Z,97528.94
2018-02-23T16:02:13.595Z,97531.46
2018-02-23T16:04:41.121Z,97537.38
2018-02-23T16:07:08.631Z,97547.30
2018-02-23T16:09:36.890Z,97548.08
2018-02-23T16:12:04.777Z,97540.27
2018-02-23T16:14:32.328Z,97541.95
2018-02-23T16:16:59.874Z,97540.14
2018-02-23T16:19:27.402Z,97543.58
2018-02-23T16:21:54.963Z,97542.54
2018-02-23T16:24:22.516Z,97551.30
2018-02-23T16:26:50.039Z,97553.36
2018-02-23T16:29:17.653Z,97549.09
2018-02-23T16:31:45.585Z,97544.97
2018-02-23T16:34:13.089Z,97547.05
2018-02-23T16:36:40.650Z,97549.81
2018-02-23T16:39:08.205Z,97543.87
2018-02-23T16:41:35.818Z,97547.83
2018-02-23T16:44:03.343Z,97557.66
2018-02-23T16:46:30.918Z,97558.80
2018-02-23T16:48:58.468Z,97559.61
2018-02-23T16:51:26.094Z,97556.99
2018-02-23T16:53:53.678Z,97557.16
2018-02-23T16:56:21.306Z,97562.38
2018-02-23T16:58:48.836Z,97563.92
2018-02-23T17:01:16.426Z,97563.47
2018-02-23T17:03:44.616Z,97571.92
2018-02-23T17:06:12.156Z,97574.34
2018-02-23T17:08:40.214Z,97589.86
2018-02-23T17:11:07.742Z,97587.39
2018-02-23T17:13:35.354Z,97587.46
2018-02-23T17:16:03.064Z,97584.52
2018-02-23T17:18:33.103Z,97587.92
2018-02-23T17:21:02.867Z,97587.66
2018-02-23T17:23:33.409Z,97588.19
2018-02-23T17:26:03.121Z,97596.86
2018-02-23T17:28:32.140Z,97596.34
2018-02-23T17:31:01.591Z,97597.73
2018-02-23T17:33:31.602Z,97595.09
2018-02-23T17:36:00.469Z,97594.37
2018-02-23T17:38:30.697Z,97592.69
2018-02-23T17:41:00.066Z,97589.30
2018-02-23T17:43:30.894Z,97588.99
2018-02-23T17:46:00.429Z,97589.45
2018-02-23T17:48:30.526Z,97586.66
2018-02-23T17:51:00.928Z,97589.78
2018-02-23T17:53:30.225Z,97581.55
2018-02-23T17:55:59.467Z,97591.16
2018-02-23T17:58:28.655Z,97583.92
2018-02-23T18:00:57.211Z,97593.35
2018-02-23T18:03:25.257Z,97591.03
2018-02-23T18:05:54.404Z,97589.74
2018-02-23T18:08:24.285Z,97586.12
2018-02-23T18:10:54.156Z,97588.84
2018-02-23T18:13:23.372Z,97586.34
2018-02-23T18:15:52.779Z,97581.02
2018-02-23T18:18:22.839Z,97585.95
2018-02-23T18:20:53.621Z,97579.25
2018-02-23T18:23:23.428Z,97574.91
2018-02-23T18:25:53.181Z,97574.27
2018-02-23T18:28:22.129Z,97574.50
2018-02-23T18:30:51.310Z,97571.89
2018-02-23T18:33:21.828Z,97577.70
2018-02-23T18:35:51.936Z,97584.50
2018-02-23T18:38:21.575Z,97578.91
2018-02-23T18:40:51.425Z,97590.38
2018-02-23T18:43:21.275Z,97589.14
2018-02-23T18:45:49.843Z,97591.66
2018-02-23T18:48:17.411Z,97589.81
2018-02-23T18:50:47.163Z,97584.46
2018-02-23T18:53:17.191Z,97594.78
2018-02-23T18:55:46.516Z,97592.70
2018-02-23T18:58:15.915Z,97585.78
2018-02-23T19:00:45.039Z,97583.95
2018-02-23T19:03:14.381Z,97575.05
2018-02-23T19:05:44.412Z,97573.25
2018-02-23T19:08:14.173Z,97579.24
2018-02-23T19:10:44.324Z,97581.80
2018-02-23T19:13:15.022Z,97573.98
2018-02-23T19:15:45.006Z,97572.78
2018-02-23T19:18:14.698Z,97573.65
2018-02-23T19:20:44.416Z,97573.38
2018-02-23T19:23:13.728Z,97579.30
2018-02-23T19:25:42.894Z,97586.70
2018-02-23T19:28:15.671Z,97583.58
2018-02-23T19:30:44.814Z,97589.70
2018-02-23T19:33:17.622Z,97598.59
2018-02-23T19:35:46.885Z,97594.66
2018-02-23T19:38:16.023Z,97594.63
2018-02-23T19:40:43.629Z,97595.39
2018-02-23T19:43:12.360Z,97592.52
2018-02-23T19:45:41.974Z,97589.42
2018-02-23T19:48:11.372Z,97599.63
2018-02-23T19:50:40.295Z,97600.81
2018-02-23T19:53:09.842Z,97603.56
2018-02-23T19:55:39.184Z,97604.56
2018-02-23T19:58:09.461Z,97607.09
2018-02-23T20:00:38.329Z,97611.88
2018-02-23T20:03:11.154Z,97609.75
2018-02-23T20:05:39.251Z,97619.28
2018-02-23T20:08:08.943Z,97615.62
2018-02-23T20:10:37.454Z,97630.67
2018-02-23T20:13:07.457Z,97622.48
2018-02-23T20:15:37.339Z,97621.61
2018-02-23T20:18:06.735Z,97627.95
2018-02-23T20:20:36.869Z,97629.22
2018-02-23T20:23:05.964Z,97617.97
2018-02-23T20:25:35.770Z,97634.62
2018-02-23T20:28:09.067Z,97634.00
2018-02-23T20:30:39.687Z,97639.53
2018-02-23T20:33:08.809Z,97633.25
2018-02-23T20:35:38.886Z,97633.38
2018-02-23T20:38:08.255Z,97634.23
2018-02-23T20:40:37.264Z,97627.02
2018-02-23T20:43:07.157Z,97626.41
2018-02-23T20:45:36.272Z,97619.87
2018-02-23T20:48:05.004Z,97623.79
2018-02-23T20:50:33.545Z,97631.93
2018-02-23T20:53:03.674Z,97630.71
2018-02-23T20:55:32.850Z,97630.78
2018-02-23T20:58:02.592Z,97632.56
2018-02-23T21:00:32.296Z,97625.11
2018-02-23T21:03:02.100Z,97635.03
2018-02-23T21:05:31.687Z,97634.34
2018-02-23T21:08:00.458Z,97639.45
2018-02-23T21:10:34.811Z,97640.59
2018-02-23T21:13:03.972Z,97636.03
2018-02-23T21:15:33.122Z,97635.81
2018-02-23T21:18:02.661Z,97641.52
2018-02-23T21:20:30.224Z,97633.82
2018-02-23T21:22:59.703Z,97627.92
2018-02-23T21:25:29.342Z,97621.62
2018-02-23T21:27:58.795Z,97623.94
2018-02-23T21:30:27.201Z,97624.81
2018-02-23T21:32:56.606Z,97620.83
2018-02-23T21:35:25.455Z,97625.34
2018-02-23T21:37:55.123Z,97626.19
2018-02-23T21:40:24.456Z,97620.95
2018-02-23T21:42:53.165Z,97621.48
2018-02-23T21:45:22.755Z,97626.27
2018-02-23T21:47:52.021Z,97625.06
2018-02-23T21:50:20.962Z,97621.83
2018-02-23T21:52:49.551Z,97621.38
2018-02-23T21:55:18.844Z,97619.81
2018-02-23T21:57:48.346Z,97621.02
2018-02-23T22:00:17.589Z,97620.14
2018-02-23T22:02:47.283Z,97623.13
2018-02-23T22:05:16.828Z,97624.51
2018-02-23T22:07:46.494Z,97620.05
2018-02-23T22:10:15.666Z,97626.09
2018-02-23T22:12:43.374Z,97627.82
2018-02-23T22:15:10.880Z,97634.44
2018-02-23T22:17:38.362Z,97629.78
2018-02-23T22:20:07.001Z,97624.89
2018-02-23T22:22:36.361Z,97622.63
2018-02-23T22:25:06.025Z,97627.14
2018-02-23T22:27:33.530Z,97625.98
2018-02-23T22:30:03.280Z,97627.07
2018-02-23T22:32:32.416Z,97630.55
2018-02-23T22:35:02.204Z,97626.45
2018-02-23T22:37:31.362Z,97638.38
2018-02-23T22:40:01.199Z,97630.81
2018-02-23T22:42:30.280Z,97633.65
2018-02-23T22:44:58.408Z,97632.44
2018-02-23T22:47:27.969Z,97632.16
2018-02-23T22:49:56.490Z,97633.25
2018-02-23T22:52:24.615Z,97641.05
2018-02-23T22:54:54.033Z,97641.91
2018-02-23T22:57:23.202Z,97641.78
2018-02-23T22:59:52.402Z,97632.61
2018-02-23T23:02:21.743Z,97635.63
2018-02-23T23:04:50.946Z,97629.00
2018-02-23T23:07:21.651Z,97631.63
2018-02-23T23:09:51.086Z,97628.22
2018-02-23T23:12:19.787Z,97634.56
2018-02-23T23:14:48.776Z,97634.62
2018-02-23T23:17:17.917Z,97635.02
2018-02-23T23:19:47.360Z,97633.99
2018-02-23T23:22:16.722Z,97630.71
2018-02-23T23:24:46.156Z,97630.88
2018-02-23T23:27:22.564Z,97629.84
2018-02-23T23:29:51.677Z,97638.89
2018-02-23T23:32:20.678Z,97634.51
2018-02-23T23:34:49.912Z,97631.17
2018-02-23T23:37:18.967Z,97636.23
2018-02-23T23:39:48.502Z,97629.20
2018-02-23T23:42:21.836Z,97636.82
2018-02-23T23:44:51.081Z,97635.84
2018-02-23T23:47:20.322Z,97637.60
2018-02-23T23:49:49.761Z,97631.55
2018-02-23T23:52:19.453Z,97644.98
2018-02-23T23:54:47.676Z,97640.83
2018-02-23T23:57:17.059Z,97649.20
2018-02-23T23:59:45.571Z,97656.80
